Aeroporto :
LOGIN :

Iscrizione | Disclaimer

   EN    FR    IT 

 










Sommario :    VFR   VFR Marginale   IFR   IFR Intensivo   IFR Molto Intensivo
Visibilità : 
Base nubi : 
>= 8 km
>= 3000ft
5 / 8 km
1000 / 3000 ft
1500m / 5 km
500 / 1000 ft
800 / 1500m
200 / 500 ft
< 800m
< 200 ft
Simboli :   Temporali  Nebbia  Neve Forte  Precipitazioni Forti  Vento > 20 kt
SIGMETs :   Varie  Temporali  Ghiacco  Turbolenza  Onda orograficha  Ceneri Vulcaniche






- Altitudine del aeroporto : 634 ft
- Codice IATA : MXX


ESKM - Mora

ULTIMO METAR :
  • 311650Z AUTO 17004KT 120V200 9999 R16/P2000N R34///// NCD 23/01 Q1030

METARs OBSOLETI :
  • 311620Z AUTO 16004KT 120V230 9999 R16/P2000N R34///// NCD 23/02 Q1030
  • 311550Z AUTO 16004KT 9999 R16/P2000N R34///// NCD 23/01 Q1030
  • 311520Z AUTO 19005KT 9999 R16/P2000N R34///// NCD 23/03 Q1030
  • 311450Z AUTO 19004KT 150V260 9999 R16/P2000N R34///// NCD 23/03 Q1030
  • 311420Z AUTO 14004KT 100V220 9999 R16/P2000N R34///// NCD 23/03 Q1031

TAF N/A



MetMap, La meteo Aeronautica in un colpo d'occhio ! - Copyright ORBIFLY Dicembre 2007 - Disclaimer

ORBIFLY MET'MAP TEAM :

Programmazione e sviluppo : Alexandra Zaïnal
Concezione : Baudouin d'Aumeries
Aiuto per la programmazione : Marc-Olivier Méhu
Supporto tecnico e logistico : Manuel Goepfert
Aiuto per la traduzione : Arnaldo La Scala

Contatto : metmap@orbifly.com




FONTI E CREDITI :

   NOAA